createdAt,value
2022-12-01T00:01:40.700Z,39.72
2022-12-01T00:06:39.426Z,47.45
2022-12-01T00:11:38.939Z,39.53
2022-12-01T00:16:38.436Z,42.60
2022-12-01T00:21:37.242Z,38.85
2022-12-01T00:26:38.096Z,41.08
2022-12-01T00:31:37.140Z,36.90
2022-12-01T00:36:36.060Z,39.08
2022-12-01T00:41:34.842Z,32.83
2022-12-01T00:46:33.618Z,36.70
2022-12-01T00:51:32.445Z,34.83
2022-12-01T00:56:31.214Z,35.30
2022-12-01T01:01:30.180Z,33.85
2022-12-01T01:06:29.704Z,41.47
2022-12-01T01:11:28.540Z,37.53
2022-12-01T01:16:27.743Z,40.20
2022-12-01T01:21:27.544Z,38.90
2022-12-01T01:26:29.181Z,37.05
2022-12-01T01:31:29.938Z,35.38
2022-12-01T01:36:28.877Z,40.08
2022-12-01T01:41:28.914Z,35.90
2022-12-01T01:46:27.821Z,33.88
2022-12-01T01:51:46.896Z,34.00
2022-12-01T01:56:47.746Z,36.17
2022-12-01T02:01:52.048Z,32.70
2022-12-01T02:06:50.961Z,36.67
2022-12-01T02:12:24.375Z,40.47
2022-12-01T02:17:41.985Z,38.20
2022-12-01T02:23:16.256Z,39.70
2022-12-01T02:28:33.772Z,37.10
2022-12-01T02:33:35.714Z,36.90
2022-12-01T02:38:47.904Z,37.17
2022-12-01T02:44:04.983Z,34.28
2022-12-01T02:49:26.849Z,37.60
2022-12-01T02:54:29.924Z,39.38
2022-12-01T02:59:28.694Z,39.50
2022-12-01T03:04:59.809Z,34.17
2022-12-01T03:10:35.700Z,44.28
2022-12-01T03:15:35.807Z,38.35
2022-12-01T03:20:39.140Z,34.13
2022-12-01T03:25:41.999Z,42.72
2022-12-01T03:30:43.334Z,35.92
2022-12-01T03:35:54.168Z,35.72
2022-12-01T03:40:58.162Z,37.63
2022-12-01T03:46:19.206Z,45.83
2022-12-01T03:51:31.703Z,39.63
2022-12-01T03:56:44.574Z,44.80
2022-12-01T04:01:54.157Z,40.42
2022-12-01T04:06:53.344Z,43.03
2022-12-01T04:12:10.889Z,45.92
2022-12-01T04:17:09.608Z,52.65
2022-12-01T04:22:08.459Z,49.05
2022-12-01T04:27:07.171Z,41.50
2022-12-01T04:32:06.028Z,50.53
2022-12-01T04:37:06.142Z,48.30
2022-12-01T04:42:05.392Z,45.47
2022-12-01T04:47:05.722Z,38.80
2022-12-01T04:52:04.872Z,51.38
2022-12-01T04:57:03.781Z,53.28
2022-12-01T05:02:04.151Z,45.58
2022-12-01T05:07:03.082Z,43.35
2022-12-01T05:12:01.852Z,49.40
2022-12-01T05:17:00.703Z,53.88
2022-12-01T05:21:59.444Z,48.53
2022-12-01T05:26:58.185Z,24.48
2022-12-01T05:31:56.977Z,48.95
2022-12-01T05:36:55.784Z,37.83
2022-12-01T05:41:54.672Z,33.47
2022-12-01T05:46:53.575Z,26.25
2022-12-01T05:51:52.327Z,33.08
2022-12-01T05:56:51.105Z,45.75
2022-12-01T06:01:50.153Z,42.90
2022-12-01T06:06:49.203Z,46.22
2022-12-01T06:11:52.221Z,45.40
2022-12-01T06:16:51.380Z,47.80
2022-12-01T06:21:50.145Z,44.10
2022-12-01T06:26:49.395Z,40.75
2022-12-01T06:31:51.144Z,48.03
2022-12-01T06:36:50.154Z,39.70
2022-12-01T06:41:49.269Z,45.78
2022-12-01T06:46:52.769Z,48.17
2022-12-01T06:51:51.573Z,50.33
2022-12-01T06:56:50.406Z,53.38
2022-12-01T07:01:49.623Z,50.75
2022-12-01T07:06:48.513Z,48.80
2022-12-01T07:11:47.399Z,56.33
2022-12-01T07:16:46.252Z,65.45
2022-12-01T07:21:45.384Z,52.42
2022-12-01T07:26:44.771Z,50.03
2022-12-01T07:31:44.155Z,45.53
2022-12-01T07:36:42.993Z,58.88
2022-12-01T07:41:41.836Z,59.22
2022-12-01T07:46:40.606Z,66.38
2022-12-01T07:51:39.679Z,57.88
2022-12-01T07:56:38.452Z,55.95
2022-12-01T08:01:40.352Z,60.72
2022-12-01T08:06:43.079Z,57.13
2022-12-01T08:11:41.873Z,58.40
2022-12-01T08:16:40.673Z,59.25
2022-12-01T08:21:39.683Z,66.55
2022-12-01T08:26:38.520Z,63.60
2022-12-01T08:31:38.229Z,65.07
2022-12-01T08:36:37.409Z,62.33
2022-12-01T08:41:36.177Z,67.20
2022-12-01T08:46:36.307Z,68.03
2022-12-01T08:51:36.395Z,65.57
2022-12-01T08:56:38.429Z,65.90
2022-12-01T09:01:52.860Z,69.38
2022-12-01T09:06:54.107Z,62.05
2022-12-01T09:11:53.513Z,63.88
2022-12-01T09:16:52.388Z,62.83
2022-12-01T09:21:51.367Z,61.97
2022-12-01T09:26:50.476Z,68.30
2022-12-01T09:31:49.365Z,62.08
2022-12-01T09:36:48.734Z,70.07
2022-12-01T09:41:53.093Z,68.72
2022-12-01T09:47:08.736Z,62.70
2022-12-01T09:52:12.700Z,66.45
2022-12-01T09:57:44.819Z,68.97
2022-12-01T10:02:49.351Z,68.93
2022-12-01T10:08:12.157Z,63.60
2022-12-01T10:13:20.177Z,65.43
2022-12-01T10:18:22.140Z,68.70
2022-12-01T10:23:26.866Z,73.07
2022-12-01T10:28:34.788Z,67.95
2022-12-01T10:33:51.280Z,67.50
2022-12-01T10:38:50.128Z,71.43
2022-12-01T10:43:57.812Z,69.35
2022-12-01T10:48:58.951Z,67.18
2022-12-01T10:54:00.398Z,55.67
2022-12-01T10:59:20.833Z,53.65
2022-12-01T11:04:46.293Z,60.58
2022-12-01T11:09:48.763Z,62.63
2022-12-01T11:14:51.073Z,62.00
2022-12-01T11:19:50.007Z,63.78
2022-12-01T11:24:55.150Z,64.88
2022-12-01T11:30:22.510Z,68.53
2022-12-01T11:35:24.274Z,52.45
2022-12-01T11:40:44.822Z,57.85
2022-12-01T11:45:45.031Z,59.80
2022-12-01T11:50:59.530Z,58.75
2022-12-01T11:56:20.833Z,68.75
2022-12-01T12:01:31.824Z,60.42
2022-12-01T12:06:55.253Z,63.38
2022-12-01T12:12:12.635Z,61.85
2022-12-01T12:17:20.400Z,63.50
2022-12-01T12:22:55.870Z,59.78
2022-12-01T12:28:10.191Z,60.38
2022-12-01T12:33:38.509Z,63.78
2022-12-01T12:38:52.168Z,61.97
2022-12-01T12:44:00.148Z,55.67
2022-12-01T12:49:42.672Z,56.70
2022-12-01T12:54:57.815Z,55.22
2022-12-01T13:00:05.079Z,59.13
2022-12-01T13:05:10.581Z,63.40
2022-12-01T13:10:20.658Z,62.65
2022-12-01T13:15:21.320Z,60.22
2022-12-01T13:20:25.191Z,65.85
2022-12-01T13:25:33.151Z,64.38
2022-12-01T13:30:31.982Z,58.17
2022-12-01T13:35:36.023Z,60.75
2022-12-01T13:40:35.002Z,55.10
2022-12-01T13:45:36.951Z,59.92
2022-12-01T13:50:46.024Z,59.00
2022-12-01T13:56:17.357Z,61.95
2022-12-01T14:01:22.866Z,57.92
2022-12-01T14:06:31.223Z,59.92
2022-12-01T14:11:32.388Z,59.60
2022-12-01T14:16:52.000Z,56.92
2022-12-01T14:21:52.008Z,54.35
2022-12-01T14:26:52.773Z,55.90
2022-12-01T14:31:51.491Z,60.33
2022-12-01T14:37:07.953Z,61.35
2022-12-01T14:42:48.806Z,52.60
2022-12-01T14:48:02.747Z,63.80
2022-12-01T14:53:09.190Z,58.00
2022-12-01T14:58:17.044Z,50.92
2022-12-01T15:03:15.876Z,57.50
2022-12-01T15:13:50.626Z,53.35
2022-12-01T15:18:49.982Z,55.30
2022-12-01T15:24:05.440Z,49.80
2022-12-01T15:29:14.082Z,55.38
2022-12-01T15:34:38.207Z,48.85
2022-12-01T15:39:43.287Z,56.78
2022-12-01T15:44:42.065Z,46.85
2022-12-01T15:49:49.250Z,45.17
2022-12-01T15:54:49.453Z,51.78
2022-12-01T15:59:57.348Z,45.08
2022-12-01T16:05:17.993Z,48.63
2022-12-01T16:10:30.471Z,48.50
2022-12-01T16:15:29.317Z,51.47
2022-12-01T16:20:34.096Z,53.42
2022-12-01T16:25:36.757Z,51.80
2022-12-01T16:30:38.749Z,54.47
2022-12-01T16:35:37.643Z,59.00
2022-12-01T16:40:36.438Z,52.97
2022-12-01T16:45:35.158Z,53.20
2022-12-01T16:50:34.003Z,57.08
2022-12-01T16:55:43.563Z,57.72
2022-12-01T17:00:42.442Z,48.55
2022-12-01T17:05:42.036Z,49.97
2022-12-01T17:10:43.026Z,55.88
2022-12-01T17:15:43.337Z,51.25
2022-12-01T17:20:42.236Z,51.33
2022-12-01T17:25:41.869Z,54.15
2022-12-01T17:30:40.842Z,47.38
2022-12-01T17:35:40.152Z,54.30
2022-12-01T17:40:39.162Z,52.13
2022-12-01T17:45:42.062Z,58.53
2022-12-01T17:50:40.976Z,52.35
2022-12-01T17:55:40.106Z,51.47
2022-12-01T18:00:39.125Z,45.00
2022-12-01T18:05:38.495Z,50.10
2022-12-01T18:10:38.102Z,53.03
2022-12-01T18:15:39.857Z,55.53
2022-12-01T18:20:45.236Z,53.60
2022-12-01T18:25:45.348Z,52.63
2022-12-01T18:30:44.167Z,56.17
2022-12-01T18:35:44.347Z,53.60
2022-12-01T18:40:43.156Z,45.85
2022-12-01T18:45:42.047Z,50.20
2022-12-01T18:50:40.827Z,49.03
2022-12-01T18:55:39.656Z,49.00
2022-12-01T19:00:38.464Z,51.28
2022-12-01T19:05:39.115Z,50.35
2022-12-01T19:10:38.156Z,48.30
2022-12-01T19:15:37.584Z,51.70
2022-12-01T19:20:37.945Z,44.13
2022-12-01T19:25:36.825Z,50.75
2022-12-01T19:30:36.046Z,51.08
2022-12-01T19:35:35.047Z,54.35
2022-12-01T19:40:33.957Z,49.33
2022-12-01T19:45:33.755Z,48.00
2022-12-01T19:50:36.664Z,47.92
2022-12-01T19:55:38.580Z,53.72
2022-12-01T20:00:37.362Z,52.85
2022-12-01T20:05:36.255Z,51.97
2022-12-01T20:10:35.032Z,47.03
2022-12-01T20:15:33.748Z,49.42
2022-12-01T20:20:32.448Z,50.42
2022-12-01T20:25:31.229Z,52.55
2022-12-01T20:30:29.988Z,52.20
2022-12-01T20:35:28.780Z,46.75
2022-12-01T20:40:28.934Z,53.35
2022-12-01T20:45:27.714Z,48.25
2022-12-01T20:50:26.580Z,49.45
2022-12-01T20:55:25.395Z,47.70
2022-12-01T21:00:24.112Z,49.40
2022-12-01T21:05:26.602Z,49.30
2022-12-01T21:10:25.700Z,51.53
2022-12-01T21:15:30.039Z,48.90
2022-12-01T21:20:42.920Z,55.08
2022-12-01T21:25:42.684Z,46.42
2022-12-01T21:30:41.708Z,45.88
2022-12-01T21:35:40.511Z,48.63
2022-12-01T21:40:43.946Z,48.53
2022-12-01T21:45:42.733Z,53.40
2022-12-01T21:50:41.584Z,47.83
2022-12-01T21:55:43.516Z,48.60
2022-12-01T22:00:42.595Z,48.05
2022-12-01T22:06:07.092Z,53.60
2022-12-01T22:11:38.536Z,44.03
2022-12-01T22:16:45.575Z,47.30
2022-12-01T22:21:46.807Z,48.28
2022-12-01T22:26:53.423Z,43.13
2022-12-01T22:32:03.631Z,43.50
2022-12-01T22:37:04.712Z,40.92
2022-12-01T22:42:09.675Z,44.20
2022-12-01T22:47:09.923Z,47.75
2022-12-01T22:52:27.526Z,40.88
2022-12-01T22:57:34.987Z,45.20
2022-12-01T23:02:34.836Z,41.55
2022-12-01T23:07:42.478Z,43.40
2022-12-01T23:12:42.210Z,45.80
2022-12-01T23:17:40.978Z,43.47
2022-12-01T23:22:40.165Z,43.75
2022-12-01T23:27:38.946Z,47.65
2022-12-01T23:32:37.655Z,40.67
2022-12-01T23:37:41.684Z,44.35
2022-12-01T23:42:40.626Z,45.90
2022-12-01T23:47:39.518Z,43.85
2022-12-01T23:52:38.313Z,39.10
2022-12-01T23:57:37.542Z,39.25
